Time;durP1;ratioP1;P1;durP2;ratioP2;P2;SDS_P1;SDS_P2;PMS_P1;PMS_P2;Temp;Humidity;BMP_temperature;BMP_pressure;BME280_temperature;BME280_humidity;BME280_pressure;Samples;Min_cycle;Max_cycle;Signal;HPM_P1;HPM_P2
2021/08/04 00:01:08;;;;;;;18.15;15.43;;;;;;;23.25;100.00;101274.14;1750109;82;21041;-82
2021/08/04 00:03:35;;;;;;;16.77;14.70;;;;;;;23.25;100.00;101281.26;1749660;82;20987;-83
2021/08/04 00:06:02;;;;;;;23.30;15.70;;;;;;;23.23;100.00;101282.73;1749641;82;20935;-83
2021/08/04 00:08:28;;;;;;;19.62;15.25;;;;;;;23.21;100.00;101282.09;1749868;82;21100;-85
2021/08/04 00:10:55;;;;;;;18.05;16.12;;;;;;;23.19;100.00;101287.56;1721763;82;21657;-83
2021/08/04 00:13:22;;;;;;;18.02;15.85;;;;;;;23.17;100.00;101284.23;1750017;82;20998;-83
2021/08/04 00:15:50;;;;;;;21.10;16.05;;;;;;;23.13;100.00;101286.88;1749580;82;21844;-83
2021/08/04 00:18:16;;;;;;;20.40;17.02;;;;;;;23.10;100.00;101297.81;1750040;82;20911;-82
2021/08/04 00:20:43;;;;;;;20.80;15.80;;;;;;;23.08;100.00;101296.33;1749638;82;21458;-83
2021/08/04 00:23:10;;;;;;;17.23;14.83;;;;;;;23.05;100.00;101299.31;1749814;82;20884;-82
2021/08/04 00:25:36;;;;;;;18.77;15.32;;;;;;;23.03;100.00;101292.88;1737510;81;21502;-82
2021/08/04 00:28:03;;;;;;;19.50;15.88;;;;;;;22.99;100.00;101291.55;1735717;82;20987;-82
2021/08/04 00:30:30;;;;;;;17.98;15.28;;;;;;;22.98;100.00;101295.17;1735593;82;20990;-82
2021/08/04 00:32:58;;;;;;;17.62;15.20;;;;;;;22.96;100.00;101301.14;1735636;82;21965;-82
2021/08/04 00:35:26;;;;;;;16.65;14.30;;;;;;;22.93;100.00;101301.48;1735653;82;20940;-83
2021/08/04 00:37:53;;;;;;;16.02;14.03;;;;;;;22.90;99.97;101299.16;1735679;82;20993;-82
2021/08/04 00:40:22;;;;;;;17.57;13.70;;;;;;;22.87;99.49;101301.31;1735736;82;21598;-82
2021/08/04 00:42:49;;;;;;;16.42;13.20;;;;;;;22.84;99.09;101305.61;1735680;82;20913;-82
2021/08/04 00:45:15;;;;;;;15.70;12.60;;;;;;;22.80;98.69;101308.25;1735682;81;21086;-81
2021/08/04 00:47:43;;;;;;;15.55;13.95;;;;;;;22.77;98.59;101309.90;1735828;82;21525;-82
2021/08/04 00:50:11;;;;;;;17.82;12.68;;;;;;;22.76;98.21;101309.56;1735773;82;21460;-81
2021/08/04 00:52:38;;;;;;;14.45;12.23;;;;;;;22.73;97.88;101305.92;1735837;82;21582;-82
2021/08/04 00:55:07;;;;;;;14.85;12.53;;;;;;;22.70;97.42;101301.79;1735766;82;21016;-82
2021/08/04 00:57:33;;;;;;;16.20;13.03;;;;;;;22.66;97.05;101302.61;1735787;82;21740;-81
2021/08/04 01:00:02;;;;;;;15.53;11.93;;;;;;;22.62;96.70;101301.77;1735760;82;21601;-82
2021/08/04 01:02:51;;;;;;;13.90;12.33;;;;;;;22.59;96.54;101308.70;1735672;82;21074;-81
2021/08/04 01:05:29;;;;;;;14.65;11.35;;;;;;;22.56;96.54;101308.51;1735831;82;21099;-81
2021/08/04 01:08:11;;;;;;;13.18;11.43;;;;;;;22.55;96.34;101300.27;1735932;82;20991;-80
2021/08/04 01:10:40;;;;;;;12.88;11.30;;;;;;;22.51;95.71;101294.96;1735738;82;21230;-81
2021/08/04 01:13:21;;;;;;;16.10;10.90;;;;;;;22.48;95.43;101296.61;1735422;82;20897;-80
2021/08/04 01:16:11;;;;;;;11.93;10.32;;;;;;;22.44;95.23;101293.12;1716878;82;20885;-80
2021/08/04 01:18:50;;;;;;;14.80;10.65;;;;;;;22.40;95.00;101297.09;1731947;82;20960;-79
2021/08/04 01:21:25;;;;;;;16.85;10.85;;;;;;;22.36;94.73;101289.98;1736603;82;20937;-78
2021/08/04 01:23:58;;;;;;;14.70;11.28;;;;;;;22.32;94.60;101293.92;1738757;82;21119;-77
2021/08/04 01:26:38;;;;;;;16.10;10.15;;;;;;;22.29;94.11;101288.97;1739184;82;20980;-77
2021/08/04 01:29:07;;;;;;;14.30;9.53;;;;;;;22.28;93.78;101287.30;1739362;82;20968;-77
2021/08/04 01:31:34;;;;;;;12.15;9.28;;;;;;;22.28;93.49;101279.86;1739334;82;21229;-77
2021/08/04 01:34:01;;;;;;;15.88;10.08;;;;;;;22.28;92.67;101288.63;1715955;82;21643;-77
2021/08/04 01:36:28;;;;;;;12.82;9.58;;;;;;;22.28;92.13;101295.23;1735526;82;21482;-77
2021/08/04 01:38:55;;;;;;;14.07;9.23;;;;;;;22.28;92.09;101293.08;1736613;82;21018;-78
2021/08/04 01:41:21;;;;;;;11.00;9.45;;;;;;;22.27;91.79;101292.77;1714781;82;21605;-78
2021/08/04 01:43:50;;;;;;;11.70;9.13;;;;;;;22.25;91.28;101288.95;1735662;82;21004;-78
2021/08/04 01:46:18;;;;;;;13.08;9.58;;;;;;;22.22;90.95;101281.34;1735752;82;20937;-77
2021/08/04 01:48:45;;;;;;;12.47;9.88;;;;;;;22.20;90.30;101288.62;1735628;82;21994;-78
2021/08/04 01:51:13;;;;;;;13.40;10.03;;;;;;;22.18;90.05;101281.32;1735741;82;21004;-77
2021/08/04 01:53:44;;;;;;;11.85;9.15;;;;;;;22.15;89.40;101285.61;1735926;82;21526;-78
2021/08/04 01:56:10;;;;;;;11.15;9.28;;;;;;;22.12;88.96;101284.61;1714846;82;20948;-77
2021/08/04 01:58:40;;;;;;;13.50;9.18;;;;;;;22.09;88.44;101290.22;1735701;82;21502;-76
2021/08/04 02:01:09;;;;;;;15.80;9.13;;;;;;;22.04;88.21;101280.14;1735661;82;21707;-77
2021/08/04 02:03:37;;;;;;;13.62;9.05;;;;;;;22.04;88.17;101291.20;1735560;82;20988;-76
2021/08/04 02:06:13;;;;;;;11.63;9.23;;;;;;;22.01;88.21;101287.56;1735581;82;20936;-77
2021/08/04 02:08:52;;;;;;;12.15;9.13;;;;;;;21.99;88.20;101285.55;1735752;82;21026;-77
2021/08/04 02:11:42;;;;;;;14.87;9.35;;;;;;;21.96;88.32;101283.23;1732914;82;21236;-78
2021/08/04 02:14:23;;;;;;;12.85;8.63;;;;;;;21.94;88.36;101288.70;1735724;82;21467;-77
2021/08/04 02:17:22;;;;;;;12.30;9.13;;;;;;;21.92;88.52;101289.84;1735595;82;21518;-77
2021/08/04 02:20:29;;;;;;;11.60;9.08;;;;;;;21.90;88.40;101292.63;1735608;82;21510;-76
2021/08/04 02:23:03;;;;;;;10.78;9.38;;;;;;;21.87;88.92;101288.95;1735476;82;21019;-77
2021/08/04 02:25:51;;;;;;;10.88;8.83;;;;;;;21.83;89.00;101297.34;1735447;82;20955;-77
2021/08/04 02:28:27;;;;;;;13.72;9.03;;;;;;;21.78;89.45;101297.84;1735722;82;21120;-76
2021/08/04 02:30:54;;;;;;;17.17;9.60;;;;;;;21.75;89.68;101299.97;1735612;82;21522;-77
2021/08/04 02:33:21;;;;;;;12.55;9.23;;;;;;;21.73;89.84;101304.07;1735665;82;21554;-75
2021/08/04 02:35:48;;;;;;;11.97;9.40;;;;;;;21.71;90.12;101309.19;1735761;82;20930;-77
2021/08/04 02:38:15;;;;;;;15.00;8.88;;;;;;;21.69;90.32;101309.36;1735708;82;21594;-77
2021/08/04 02:40:42;;;;;;;12.88;9.58;;;;;;;21.68;90.47;101310.82;1735627;82;21948;-79
2021/08/04 02:43:10;;;;;;;11.68;9.40;;;;;;;21.63;90.83;101314.75;1735581;82;20924;-78
2021/08/04 02:45:37;;;;;;;12.78;9.63;;;;;;;21.59;91.26;101313.44;1739025;82;21459;-77
2021/08/04 02:48:04;;;;;;;13.60;8.83;;;;;;;21.57;91.73;101307.45;1735492;82;21535;-77
2021/08/04 02:50:34;;;;;;;10.68;8.98;;;;;;;21.57;91.99;101303.50;1735745;82;20992;-77
2021/08/04 02:53:01;;;;;;;11.95;9.40;;;;;;;21.57;92.26;101302.17;1715054;82;21123;-78
2021/08/04 02:55:28;;;;;;;11.85;10.58;;;;;;;21.59;92.24;101304.19;1735747;82;20953;-77
2021/08/04 02:57:55;;;;;;;19.62;9.63;;;;;;;21.59;92.34;101311.28;1691139;82;21039;-77
2021/08/04 03:00:22;;;;;;;15.03;9.40;;;;;;;21.57;92.39;101314.55;1735445;82;21122;-77
2021/08/04 03:02:48;;;;;;;13.08;9.60;;;;;;;21.52;92.64;101312.88;1735577;82;20956;-78
2021/08/04 03:05:16;;;;;;;14.30;9.63;;;;;;;21.50;93.08;101312.22;1714786;82;21956;-78
2021/08/04 03:07:44;;;;;;;11.45;8.93;;;;;;;21.48;93.45;101313.68;1735496;82;21479;-79
2021/08/04 03:10:11;;;;;;;13.40;9.20;;;;;;;21.50;93.65;101317.50;1735621;82;21026;-78
2021/08/04 03:12:40;;;;;;;17.35;10.72;;;;;;;21.50;93.92;101318.34;1735761;82;21103;-78
2021/08/04 03:15:08;;;;;;;15.83;9.68;;;;;;;21.52;93.91;101317.67;1735754;82;20943;-77
2021/08/04 03:17:36;;;;;;;14.47;9.63;;;;;;;21.51;94.12;101321.29;1735605;82;21428;-78
2021/08/04 03:20:05;;;;;;;11.95;9.50;;;;;;;21.55;94.27;101325.28;1735712;82;21082;-78
2021/08/04 03:22:31;;;;;;;14.05;9.45;;;;;;;21.59;94.33;101322.67;1735739;82;21601;-77
2021/08/04 03:25:00;;;;;;;14.15;9.75;;;;;;;21.62;94.21;101329.45;1735204;81;21486;-76
2021/08/04 03:27:26;;;;;;;10.15;9.15;;;;;;;21.64;94.09;101331.44;1735478;82;20917;-76
2021/08/04 03:29:53;;;;;;;13.03;9.65;;;;;;;21.65;94.12;101326.50;1735471;81;21463;-77
2021/08/04 03:32:20;;;;;;;19.48;9.60;;;;;;;21.66;94.04;101329.48;1735646;82;21419;-78
2021/08/04 03:34:47;;;;;;;13.90;10.28;;;;;;;21.68;93.96;101330.14;1735565;82;20981;-77
2021/08/04 03:37:13;;;;;;;15.38;8.83;;;;;;;21.70;94.09;101329.48;1735675;82;21028;-78
2021/08/04 03:39:40;;;;;;;12.65;8.98;;;;;;;21.73;94.10;101321.77;1735619;82;21117;-78
2021/08/04 03:42:07;;;;;;;14.55;9.48;;;;;;;21.75;94.28;101326.39;1735359;81;21104;-77
2021/08/04 03:44:33;;;;;;;16.27;9.73;;;;;;;21.78;94.34;101324.75;1735348;82;20964;-77
2021/08/04 03:47:03;;;;;;;11.55;9.10;;;;;;;21.79;94.19;101325.92;1735452;82;21052;-76
2021/08/04 03:49:30;;;;;;;14.00;10.03;;;;;;;21.81;94.24;101330.55;1735527;82;20952;-78
2021/08/04 03:51:56;;;;;;;14.98;9.58;;;;;;;21.81;94.16;101332.36;1735511;81;20996;-78
2021/08/04 03:54:23;;;;;;;16.52;9.68;;;;;;;21.80;94.28;101332.84;1735511;82;21116;-77
2021/08/04 03:56:50;;;;;;;11.53;9.23;;;;;;;21.82;94.57;101336.18;1735410;82;20955;-77
2021/08/04 03:59:16;;;;;;;13.93;8.88;;;;;;;21.87;94.50;101347.58;1735838;82;20901;-77
2021/08/04 04:01:44;;;;;;;12.55;8.38;;;;;;;21.91;94.31;101350.28;1735516;82;20991;-75
2021/08/04 04:04:12;;;;;;;12.45;10.08;;;;;;;21.95;94.42;101355.08;1735672;82;21504;-77
2021/08/04 04:06:40;;;;;;;10.40;8.38;;;;;;;22.01;94.04;101357.61;1735729;82;21143;-77
2021/08/04 04:09:06;;;;;;;11.80;8.50;;;;;;;22.03;93.66;101363.06;1735274;82;20980;-77
2021/08/04 04:11:36;;;;;;;14.53;8.15;;;;;;;22.07;93.54;101367.05;1735598;82;21008;-77
2021/08/04 04:14:03;;;;;;;11.15;8.10;;;;;;;22.10;93.23;101369.86;1735379;82;21011;-77
2021/08/04 04:16:30;;;;;;;11.15;8.13;;;;;;;22.13;93.39;101367.73;1735524;82;21601;-77
2021/08/04 04:18:57;;;;;;;11.95;7.70;;;;;;;22.18;93.34;101365.92;1735467;82;21064;-77
2021/08/04 04:21:24;;;;;;;12.07;8.98;;;;;;;22.23;93.25;101370.26;1735478;82;21516;-77
2021/08/04 04:23:50;;;;;;;11.88;8.05;;;;;;;22.28;93.18;101370.59;1735352;82;21456;-77
2021/08/04 04:26:18;;;;;;;13.13;7.95;;;;;;;22.34;93.07;101363.83;1744252;81;20947;-78
2021/08/04 04:28:45;;;;;;;10.48;8.03;;;;;;;22.38;92.79;101358.56;1721753;82;21023;-78
2021/08/04 04:31:12;;;;;;;13.43;8.85;;;;;;;22.42;92.79;101355.94;1749443;82;21554;-77
2021/08/04 04:33:38;;;;;;;10.95;8.70;;;;;;;22.45;92.56;101351.16;1749507;82;20927;-77
2021/08/04 04:36:07;;;;;;;14.47;8.73;;;;;;;22.50;92.45;101355.95;1749445;82;21533;-77
2021/08/04 04:38:34;;;;;;;10.23;8.30;;;;;;;22.54;92.33;101356.80;1749699;82;21498;-77
2021/08/04 04:41:02;;;;;;;13.30;9.05;;;;;;;22.59;92.10;101365.58;1749319;82;21439;-77
2021/08/04 04:43:28;;;;;;;15.38;8.93;;;;;;;22.65;91.49;101363.61;1749339;82;21109;-77
2021/08/04 04:45:55;;;;;;;12.70;9.45;;;;;;;22.69;91.37;101366.80;1749515;82;21078;-76
2021/08/04 04:48:23;;;;;;;14.20;9.63;;;;;;;22.73;91.19;101370.75;1749444;82;21502;-77
2021/08/04 04:50:50;;;;;;;12.03;9.03;;;;;;;22.76;90.96;101373.91;1749341;82;21657;-79
2021/08/04 04:53:18;;;;;;;11.57;9.03;;;;;;;22.80;90.98;101373.08;1749380;82;20992;-78
2021/08/04 04:55:46;;;;;;;16.60;9.03;;;;;;;22.84;90.98;101379.72;1749583;82;21099;-78
2021/08/04 04:58:14;;;;;;;11.88;8.50;;;;;;;22.89;90.78;101376.07;1749389;82;21098;-76
2021/08/04 05:00:41;;;;;;;14.40;9.75;;;;;;;22.92;90.72;101384.52;1749783;82;21483;-78
2021/08/04 05:03:07;;;;;;;9.35;8.03;;;;;;;22.96;90.78;101379.23;1749405;82;21020;-77
2021/08/04 05:05:35;;;;;;;13.88;8.75;;;;;;;23.02;90.87;101377.25;1749573;82;21058;-77
2021/08/04 05:08:02;;;;;;;10.63;8.55;;;;;;;23.08;90.86;101381.88;1749388;82;21115;-77
2021/08/04 05:10:28;;;;;;;11.10;8.33;;;;;;;23.13;90.49;101377.43;1749427;82;20928;-77
2021/08/04 05:12:57;;;;;;;8.75;7.95;;;;;;;23.17;90.41;101389.33;1749494;82;20983;-76
2021/08/04 05:15:23;;;;;;;12.55;8.58;;;;;;;23.21;90.51;101393.30;1749600;82;20889;-77
2021/08/04 05:17:50;;;;;;;10.65;8.35;;;;;;;23.25;90.64;101385.38;1749604;82;20987;-77
2021/08/04 05:20:17;;;;;;;16.23;12.25;;;;;;;23.30;90.74;101388.83;1749566;82;21102;-77
2021/08/04 05:22:44;;;;;;;12.90;11.50;;;;;;;23.37;90.85;101385.36;1749594;82;21523;-78
2021/08/04 05:25:11;;;;;;;15.43;8.65;;;;;;;23.45;90.86;101385.89;1749763;81;21470;-77
2021/08/04 05:27:40;;;;;;;13.30;8.80;;;;;;;23.51;90.87;101385.22;1749300;82;20972;-77
2021/08/04 05:30:12;;;;;;;10.38;8.80;;;;;;;23.59;90.98;101390.50;1749342;82;21058;-78
2021/08/04 05:32:39;;;;;;;10.15;7.87;;;;;;;23.68;90.95;101396.94;1749596;82;21134;-77
2021/08/04 05:35:07;;;;;;;10.05;8.35;;;;;;;23.76;91.09;101402.73;1749529;80;21000;-78
2021/08/04 05:37:34;;;;;;;9.38;7.97;;;;;;;23.83;91.05;101403.72;1749692;82;21470;-76
2021/08/04 05:40:00;;;;;;;9.45;7.08;;;;;;;23.90;91.05;101398.05;1749639;82;21502;-78
2021/08/04 05:42:28;;;;;;;11.10;7.17;;;;;;;23.98;90.97;101399.37;1749791;82;20928;-77
2021/08/04 05:44:56;;;;;;;11.48;7.15;;;;;;;24.05;90.97;101397.70;1749539;82;20904;-77
2021/08/04 05:47:24;;;;;;;13.88;7.65;;;;;;;24.14;91.04;101387.41;1749578;82;20979;-75
2021/08/04 05:49:50;;;;;;;9.68;7.83;;;;;;;24.23;91.18;101387.70;1749437;80;21450;-77
2021/08/04 05:52:17;;;;;;;9.30;7.45;;;;;;;24.34;91.34;101392.31;1749552;82;21042;-77
2021/08/04 05:54:45;;;;;;;8.93;6.40;;;;;;;24.42;91.37;101394.41;1749611;82;21073;-78
2021/08/04 05:57:11;;;;;;;7.37;5.78;;;;;;;24.53;91.21;101397.19;1749576;82;21114;-75
2021/08/04 05:59:39;;;;;;;9.45;5.30;;;;;;;24.60;90.88;101397.62;1749365;82;21550;-75
2021/08/04 06:02:06;;;;;;;8.65;5.78;;;;;;;24.70;90.14;101400.89;1749245;80;21449;-74
2021/08/04 06:04:33;;;;;;;8.93;5.33;;;;;;;24.79;89.68;101399.03;1745101;80;21669;-75
2021/08/04 06:07:00;;;;;;;7.70;5.92;;;;;;;24.87;89.31;101401.66;1719494;83;20982;-76
2021/08/04 06:09:29;;;;;;;8.35;6.03;;;;;;;24.93;88.65;101402.27;1719892;83;21087;-76
2021/08/04 06:11:58;;;;;;;8.30;5.65;;;;;;;25.00;88.09;101404.55;1719545;83;20947;-77
2021/08/04 06:14:26;;;;;;;6.42;5.70;;;;;;;25.06;87.88;101402.52;1719729;83;20896;-76
2021/08/04 06:16:53;;;;;;;15.20;6.10;;;;;;;25.14;88.10;101401.11;1719603;83;21572;-76
2021/08/04 06:19:20;;;;;;;8.55;6.20;;;;;;;25.23;88.11;101400.57;1719576;83;21498;-76
2021/08/04 06:21:48;;;;;;;10.32;7.65;;;;;;;25.33;87.56;101400.32;1719565;83;21125;-78
2021/08/04 06:24:15;;;;;;;9.23;6.62;;;;;;;25.41;86.91;101400.23;1719473;83;21145;-76
2021/08/04 06:26:43;;;;;;;8.73;5.85;;;;;;;25.47;84.91;101403.50;1721696;82;21633;-77
2021/08/04 06:29:10;;;;;;;21.90;11.18;;;;;;;25.51;84.60;101388.89;1742825;82;20939;-78
2021/08/04 06:31:38;;;;;;;8.03;6.00;;;;;;;25.56;84.15;101386.00;1720853;82;21104;-78
2021/08/04 06:34:04;;;;;;;9.35;5.62;;;;;;;25.62;82.58;101383.14;1747053;82;21110;-75
2021/08/04 06:36:33;;;;;;;9.28;5.33;;;;;;;25.66;81.80;101380.42;1736188;82;21010;-76
2021/08/04 06:39:00;;;;;;;9.25;6.17;;;;;;;25.72;81.20;101385.84;1749117;82;21494;-76
2021/08/04 06:41:27;;;;;;;11.40;7.03;;;;;;;25.77;81.03;101379.98;1749372;82;21097;-75
2021/08/04 06:43:57;;;;;;;7.58;5.00;;;;;;;25.82;81.26;101384.23;1722208;82;20999;-75
2021/08/04 06:46:34;;;;;;;9.33;5.12;;;;;;;25.89;80.97;101385.66;1749365;82;20979;-76
2021/08/04 06:49:05;;;;;;;12.55;6.15;;;;;;;25.95;80.94;101387.09;1749495;82;21503;-75
2021/08/04 06:51:34;;;;;;;7.83;5.45;;;;;;;26.03;80.42;101382.19;1749666;82;20967;-75
2021/08/04 06:54:01;;;;;;;8.55;5.37;;;;;;;26.09;80.27;101384.94;1749517;82;20944;-76
2021/08/04 06:56:28;;;;;;;6.65;5.67;;;;;;;26.15;79.61;101385.53;1749699;82;21431;-76
2021/08/04 06:58:56;;;;;;;8.33;6.08;;;;;;;26.21;79.10;101383.98;1749573;82;21491;-75
2021/08/04 07:01:23;;;;;;;8.35;5.83;;;;;;;26.31;79.10;101381.87;1749286;80;20987;-73
2021/08/04 07:03:50;;;;;;;8.00;5.75;;;;;;;26.39;78.85;101380.41;1749420;82;21568;-76
2021/08/04 07:06:17;;;;;;;9.18;6.22;;;;;;;26.47;78.31;101378.16;1749260;82;20911;-76
2021/08/04 07:08:43;;;;;;;7.55;5.50;;;;;;;26.53;77.46;101372.09;1749276;82;21024;-76
2021/08/04 07:11:10;;;;;;;5.75;5.12;;;;;;;26.58;77.53;101379.02;1749406;82;21504;-78
2021/08/04 07:13:37;;;;;;;6.37;5.20;;;;;;;26.62;77.41;101373.11;1749347;82;20940;-77
2021/08/04 07:16:06;;;;;;;10.15;5.40;;;;;;;26.70;77.19;101377.00;1749467;82;21035;-75
2021/08/04 07:18:34;;;;;;;8.28;5.42;;;;;;;26.76;76.53;101373.58;1749327;82;21059;-76
2021/08/04 07:21:01;;;;;;;9.28;5.17;;;;;;;26.83;75.05;101373.16;1749332;82;21530;-77
2021/08/04 07:23:27;;;;;;;5.92;4.95;;;;;;;26.92;73.18;101369.05;1749573;82;21778;-75
2021/08/04 07:25:55;;;;;;;6.62;4.33;;;;;;;27.01;72.88;101373.22;1748374;81;20943;-75
2021/08/04 07:28:21;;;;;;;4.75;4.22;;;;;;;27.10;70.67;101372.07;1735400;81;21035;-75
2021/08/04 07:30:48;;;;;;;5.45;4.30;;;;;;;27.17;69.65;101372.45;1735451;82;20912;-76
2021/08/04 07:33:16;;;;;;;6.22;4.28;;;;;;;27.25;69.28;101377.63;1735438;82;21044;-78
2021/08/04 07:35:42;;;;;;;6.50;4.25;;;;;;;27.38;67.47;101380.91;1735420;82;21165;-76
2021/08/04 07:38:09;;;;;;;6.45;3.72;;;;;;;27.45;65.93;101376.49;1735208;82;21440;-77
2021/08/04 07:40:36;;;;;;;6.17;4.65;;;;;;;27.54;64.67;101382.53;1735367;82;21567;-80
2021/08/04 07:43:03;;;;;;;5.97;4.00;;;;;;;27.60;64.34;101379.87;1735527;82;21052;-76
2021/08/04 07:45:30;;;;;;;6.78;4.28;;;;;;;27.69;65.39;101377.91;1735451;82;20940;-76
2021/08/04 07:47:57;;;;;;;6.17;4.20;;;;;;;27.77;66.19;101371.06;1735624;82;21138;-77
2021/08/04 07:50:24;;;;;;;7.72;4.05;;;;;;;27.88;67.05;101372.37;1735503;82;21026;-75
2021/08/04 07:52:51;;;;;;;7.03;3.42;;;;;;;27.97;66.58;101372.02;1735359;82;20960;-77
2021/08/04 07:55:19;;;;;;;7.28;3.52;;;;;;;28.06;66.62;101368.69;1735310;82;20991;-77
2021/08/04 07:57:45;;;;;;;6.22;3.42;;;;;;;28.13;65.65;101358.87;1735540;82;21499;-76
2021/08/04 08:00:14;;;;;;;6.45;3.65;;;;;;;28.19;65.73;101356.74;1735469;82;21121;-79
2021/08/04 08:02:44;;;;;;;7.42;3.47;;;;;;;28.22;65.09;101354.50;1735217;82;21372;-76
2021/08/04 08:05:11;;;;;;;4.70;3.90;;;;;;;28.26;64.11;101351.75;1735338;82;21380;-75
2021/08/04 08:07:46;;;;;;;3.95;3.55;;;;;;;28.31;62.69;101352.47;1735374;82;20938;-73
2021/08/04 08:10:25;;;;;;;6.10;3.10;;;;;;;28.36;61.25;101348.70;1735377;82;21790;-74
2021/08/04 08:12:53;;;;;;;3.25;2.98;;;;;;;28.43;60.72;101354.89;1735234;81;21499;-78
2021/08/04 08:15:21;;;;;;;4.62;2.72;;;;;;;28.48;60.10;101353.77;1729747;82;21432;-76
2021/08/04 08:17:49;;;;;;;4.87;3.25;;;;;;;28.50;60.16;101344.20;1695039;82;33428;-76
2021/08/04 08:20:16;;;;;;;3.77;3.20;;;;;;;28.52;60.80;101353.69;1721204;82;21064;-77
2021/08/04 08:22:43;;;;;;;4.40;2.92;;;;;;;28.56;61.63;101354.11;1706166;84;21052;-78
2021/08/04 08:25:13;;;;;;;5.95;2.90;;;;;;;28.57;62.37;101359.73;1723102;82;21112;-76
2021/08/04 08:27:43;;;;;;;4.20;3.10;;;;;;;28.56;60.66;101362.12;1744595;82;20928;-77
2021/08/04 08:30:10;;;;;;;4.65;3.17;;;;;;;28.57;60.72;101371.24;1749366;82;20983;-76
2021/08/04 08:32:37;;;;;;;6.45;3.45;;;;;;;28.59;61.48;101363.84;1749551;82;20939;-78
2021/08/04 08:35:06;;;;;;;7.65;2.80;;;;;;;28.64;61.73;101360.08;1749343;80;21020;-77
2021/08/04 08:37:33;;;;;;;6.67;3.20;;;;;;;28.66;62.15;101355.37;1749665;82;21123;-74
2021/08/04 08:40:00;;;;;;;4.00;3.10;;;;;;;28.69;61.93;101356.30;1749478;80;21547;-75
2021/08/04 08:42:27;;;;;;;3.98;3.37;;;;;;;28.71;61.51;101358.78;1749086;80;21939;-74
2021/08/04 08:44:53;;;;;;;4.78;3.20;;;;;;;28.77;61.51;101354.79;1749288;82;20888;-74
2021/08/04 08:47:23;;;;;;;5.95;3.10;;;;;;;28.91;58.52;101354.81;1749525;82;21510;-76
2021/08/04 08:49:50;;;;;;;5.15;2.87;;;;;;;28.93;57.37;101349.56;1749451;82;21758;-81
2021/08/04 08:52:18;;;;;;;8.20;3.62;;;;;;;28.95;57.74;101350.17;1749382;82;20967;-79
2021/08/04 08:54:45;;;;;;;10.78;3.02;;;;;;;29.03;57.14;101344.64;1749279;82;21562;-77
2021/08/04 08:57:12;;;;;;;4.35;3.58;;;;;;;29.07;56.13;101343.18;1749212;82;21564;-78
2021/08/04 08:59:39;;;;;;;5.47;3.27;;;;;;;29.10;54.73;101343.30;1749622;82;20912;-81
2021/08/04 09:02:06;;;;;;;4.22;3.45;;;;;;;29.11;54.51;101336.91;1749510;82;21100;-81
2021/08/04 09:04:32;;;;;;;3.40;2.92;;;;;;;29.09;54.09;101335.80;1749796;82;21003;-75
2021/08/04 09:07:00;;;;;;;4.75;3.35;;;;;;;29.10;54.92;101337.42;1749702;82;20888;-75
2021/08/04 09:09:30;;;;;;;5.42;2.98;;;;;;;29.12;54.90;101331.88;1749381;82;21566;-85
2021/08/04 09:12:10;;;;;;;3.08;2.77;;;;;;;29.20;54.63;101331.66;1749658;82;20911;-79
2021/08/04 09:14:38;;;;;;;7.03;2.98;;;;;;;29.29;54.16;101323.25;1749539;82;21113;-76
2021/08/04 09:17:13;;;;;;;5.30;3.12;;;;;;;29.37;52.48;101323.05;1749658;82;20944;-77
2021/08/04 09:19:44;;;;;;;4.72;3.08;;;;;;;29.43;53.43;101325.91;1749378;82;20987;-77
2021/08/04 09:22:22;;;;;;;3.40;3.02;;;;;;;29.56;53.01;101322.70;1749554;82;20900;-76
2021/08/04 09:25:07;;;;;;;4.67;2.98;;;;;;;29.71;52.88;101317.09;1749526;82;21039;-80
2021/08/04 09:27:54;;;;;;;5.75;3.08;;;;;;;29.83;52.17;101310.94;1742704;81;21782;-77
2021/08/04 09:30:33;;;;;;;3.75;2.90;;;;;;;29.94;52.26;101312.11;1735492;82;20933;-76
2021/08/04 09:33:15;;;;;;;7.70;3.27;;;;;;;30.09;51.18;101310.52;1735713;82;20940;-78
2021/08/04 09:35:48;;;;;;;4.97;3.07;;;;;;;30.25;51.46;101304.13;1736143;82;20929;-76
2021/08/04 09:38:15;;;;;;;3.60;3.22;;;;;;;30.36;51.05;101299.45;1736557;81;20947;-76
2021/08/04 09:40:42;;;;;;;6.17;3.12;;;;;;;30.46;50.92;101294.16;1736350;82;21971;-77
2021/08/04 09:43:09;;;;;;;5.78;3.35;;;;;;;30.57;50.18;101286.23;1736108;81;21115;-76
2021/08/04 09:45:48;;;;;;;22.70;3.62;;;;;;;30.71;50.30;101272.23;1736165;82;21585;-79
2021/08/04 09:48:16;;;;;;;8.48;3.20;;;;;;;30.79;48.64;101267.96;1715590;82;21456;-78
2021/08/04 09:50:53;;;;;;;9.50;3.20;;;;;;;30.76;48.37;101266.52;1735652;82;21052;-77
2021/08/04 09:53:31;;;;;;;6.85;3.30;;;;;;;30.79;48.61;101269.30;1735748;82;21141;-78
2021/08/04 09:56:14;;;;;;;5.28;2.98;;;;;;;30.80;48.67;101275.77;1735501;82;21070;-76
2021/08/04 09:58:47;;;;;;;7.95;3.47;;;;;;;30.89;48.70;101274.44;1735462;82;20981;-80
2021/08/04 10:01:17;;;;;;;6.97;3.10;;;;;;;30.99;49.70;101269.13;1735503;82;21515;-80
2021/08/04 10:04:04;;;;;;;5.15;4.00;;;;;;;31.39;49.81;101271.22;1735612;82;20941;-76
2021/08/04 10:06:34;;;;;;;8.00;3.37;;;;;;;32.10;49.27;101263.08;1735464;82;21138;-81
2021/08/04 10:09:01;;;;;;;4.62;3.72;;;;;;;32.81;48.25;101254.95;1735707;82;20912;-79
2021/08/04 10:11:47;;;;;;;7.67;2.98;;;;;;;33.70;43.88;101253.73;1714771;82;21120;-78
2021/08/04 10:14:20;;;;;;;4.50;3.27;;;;;;;34.44;42.81;101254.05;1735016;82;21506;-78
2021/08/04 10:16:49;;;;;;;4.85;3.45;;;;;;;35.52;41.20;101252.17;1735770;82;21044;-80
2021/08/04 10:19:16;;;;;;;4.12;2.90;;;;;;;36.38;39.30;101255.30;1735720;82;21150;-78
2021/08/04 10:21:45;;;;;;;6.22;3.00;;;;;;;37.13;38.38;101247.52;1735300;82;21015;-77
2021/08/04 10:24:12;;;;;;;4.70;3.33;;;;;;;37.91;36.73;101252.48;1736161;82;21527;-78
2021/08/04 10:26:39;;;;;;;3.75;3.00;;;;;;;38.75;34.94;101251.97;1735881;82;20929;-78
2021/08/04 10:29:07;;;;;;;5.20;3.60;;;;;;;39.37;32.84;101243.44;1743726;81;21088;-77
2021/08/04 10:31:34;;;;;;;5.90;3.70;;;;;;;39.63;32.39;101247.67;1743918;82;21990;-75
2021/08/04 10:34:01;;;;;;;4.00;3.10;;;;;;;39.12;32.27;101241.05;1735054;82;20916;-77
2021/08/04 10:36:38;;;;;;;6.17;3.27;;;;;;;38.34;33.17;101239.77;1718574;81;21439;-76
2021/08/04 10:39:09;;;;;;;5.42;3.33;;;;;;;37.41;34.28;101233.56;1713869;83;21082;-76
2021/08/04 10:41:37;;;;;;;7.00;3.03;;;;;;;36.60;36.40;101227.66;1714310;83;21048;-74
2021/08/04 10:44:07;;;;;;;4.90;3.47;;;;;;;36.17;37.52;101230.53;1714291;83;21158;-74
2021/08/04 10:46:37;;;;;;;3.87;2.87;;;;;;;35.91;38.08;101231.31;1713903;83;20983;-77
2021/08/04 10:49:10;;;;;;;11.50;3.95;;;;;;;35.45;38.83;101225.93;1714085;83;21569;-79
2021/08/04 10:51:43;;;;;;;4.95;3.25;;;;;;;35.03;39.79;101218.88;1714067;83;21075;-75
2021/08/04 10:54:17;;;;;;;9.60;3.95;;;;;;;34.76;40.38;101223.32;1714424;83;21066;-85
2021/08/04 10:56:53;;;;;;;6.40;3.65;;;;;;;34.43;40.66;101228.19;1713951;83;21124;-75
2021/08/04 10:59:25;;;;;;;5.28;4.00;;;;;;;34.15;41.54;101226.34;1714419;82;20892;-81
2021/08/04 11:02:05;;;;;;;6.37;3.92;;;;;;;34.01;41.97;101229.86;1734824;81;20948;-82
2021/08/04 11:04:40;;;;;;;4.83;4.15;;;;;;;33.86;41.87;101225.52;1717801;82;21503;-78
2021/08/04 11:07:19;;;;;;;6.22;3.92;;;;;;;33.66;42.60;101217.07;1714152;83;20984;-74
2021/08/04 11:09:53;;;;;;;5.28;3.65;;;;;;;33.54;42.90;101217.58;1743627;82;20884;-75
2021/08/04 11:12:37;;;;;;;7.50;3.65;;;;;;;33.36;43.17;101217.23;1743721;82;21601;-80
2021/08/04 11:15:24;;;;;;;12.03;4.30;;;;;;;33.25;43.90;101215.92;1736896;82;20991;-82
2021/08/04 11:18:09;;;;;;;6.92;4.00;;;;;;;33.35;43.47;101214.25;1713689;83;20984;-76
2021/08/04 11:20:43;;;;;;;6.05;3.72;;;;;;;33.25;43.84;101211.34;1714113;83;21065;-78
2021/08/04 11:23:10;;;;;;;4.78;3.75;;;;;;;33.19;44.70;101210.94;1697816;83;21154;-76
2021/08/04 11:25:41;;;;;;;5.92;3.77;;;;;;;33.13;44.26;101205.16;1713878;83;21018;-86
2021/08/04 11:28:11;;;;;;;4.10;3.70;;;;;;;33.07;44.93;101201.22;1716720;83;20976;-80
2021/08/04 11:30:48;;;;;;;5.17;3.83;;;;;;;33.16;45.16;101207.38;1719575;83;20964;-80